Time;durP1;ratioP1;P1;durP2;ratioP2;P2;SDS_P1;SDS_P2;PMS_P1;PMS_P2;Temp;Humidity;BMP_temperature;BMP_pressure;BME280_temperature;BME280_humidity;BME280_pressure;Samples;Min_cycle;Max_cycle;Signal;HPM_P1;HPM_P2
2022/07/25 00:01:35;;;;;;;12.57;11.47;;;20.50;99.90;;;;;;4956421;28;20655;-79
2022/07/25 00:04:01;;;;;;;12.53;11.33;;;20.50;99.90;;;;;;4955868;29;20715;-79
2022/07/25 00:06:28;;;;;;;11.23;10.23;;;20.50;99.90;;;;;;4957471;29;20210;-79
2022/07/25 00:08:55;;;;;;;11.57;10.47;;;20.50;99.90;;;;;;4957433;29;20730;-79
2022/07/25 00:11:22;;;;;;;12.40;11.30;;;20.40;99.90;;;;;;4957447;28;20215;-79
2022/07/25 00:13:49;;;;;;;11.73;10.73;;;20.40;99.90;;;;;;4955715;29;20729;-79
2022/07/25 00:16:15;;;;;;;12.13;11.03;;;20.30;99.90;;;;;;4956085;29;20230;-79
2022/07/25 00:18:44;;;;;;;12.13;11.03;;;20.30;99.90;;;;;;4957305;28;20261;-79
2022/07/25 00:21:11;;;;;;;12.17;10.97;;;20.30;99.90;;;;;;4955898;29;20226;-79
2022/07/25 00:23:37;;;;;;;12.30;11.20;;;20.20;99.90;;;;;;4956996;29;20261;-80
2022/07/25 00:26:04;;;;;;;12.00;10.80;;;20.20;99.90;;;;;;4955818;29;20217;-79
2022/07/25 00:28:31;;;;;;;11.37;10.37;;;20.10;99.90;;;;;;4957119;29;20285;-79
2022/07/25 00:30:58;;;;;;;12.17;11.07;;;20.10;99.90;;;;;;4955691;28;20233;-79
2022/07/25 00:33:25;;;;;;;12.17;11.07;;;20.00;99.90;;;;;;4955440;29;20269;-79
2022/07/25 00:35:53;;;;;;;13.27;12.07;;;20.00;99.90;;;;;;4955678;29;20205;-80
2022/07/25 00:38:20;;;;;;;12.20;11.00;;;19.90;99.90;;;;;;4971799;28;20626;-79
2022/07/25 00:40:47;;;;;;;12.57;11.50;;;19.90;99.90;;;;;;4971725;28;20437;-78
2022/07/25 00:43:14;;;;;;;12.50;11.40;;;19.90;99.90;;;;;;4956689;29;20730;-78
2022/07/25 00:45:41;;;;;;;13.87;12.57;;;19.90;99.90;;;;;;4955347;29;20201;-79
2022/07/25 00:48:08;;;;;;;12.77;11.60;;;19.90;99.90;;;;;;4956498;29;20209;-78
2022/07/25 00:50:36;;;;;;;11.93;10.93;;;19.90;99.90;;;;;;4955447;28;20225;-79
2022/07/25 00:53:04;;;;;;;12.13;11.03;;;19.90;99.90;;;;;;4955034;28;20742;-79
2022/07/25 00:55:32;;;;;;;12.23;11.13;;;19.90;99.90;;;;;;4955230;29;20649;-79
2022/07/25 00:57:59;;;;;;;12.40;11.30;;;19.80;99.90;;;;;;4971330;28;20205;-79
2022/07/25 01:00:26;;;;;;;12.67;11.57;;;19.80;99.90;;;;;;4956365;28;20222;-79
2022/07/25 01:02:53;;;;;;;13.07;11.77;;;19.80;99.90;;;;;;4955136;29;20209;-79
2022/07/25 01:05:20;;;;;;;12.60;11.50;;;19.80;99.90;;;;;;4956124;29;20213;-79
2022/07/25 01:07:47;;;;;;;12.67;11.47;;;19.70;99.90;;;;;;4971432;28;20367;-79
2022/07/25 01:10:15;;;;;;;12.50;11.40;;;19.70;99.90;;;;;;4954958;28;20285;-79
2022/07/25 01:12:48;;;;;;;13.43;12.23;;;19.70;99.90;;;;;;4954990;29;20206;-79
2022/07/25 01:15:16;;;;;;;12.87;11.67;;;19.70;99.90;;;;;;4952264;29;20229;-79
2022/07/25 01:17:43;;;;;;;12.80;11.70;;;19.60;99.90;;;;;;4956175;29;20722;-79
2022/07/25 01:20:15;;;;;;;13.23;12.03;;;19.60;99.90;;;;;;4946991;28;20222;-79
2022/07/25 01:22:43;;;;;;;12.37;11.27;;;19.60;99.90;;;;;;4956324;29;20202;-79
2022/07/25 01:25:10;;;;;;;12.93;11.77;;;19.60;99.90;;;;;;4955929;29;20197;-79
2022/07/25 01:27:37;;;;;;;12.83;11.73;;;19.50;99.90;;;;;;4956814;28;20209;-79
2022/07/25 01:30:06;;;;;;;12.60;11.50;;;19.50;99.90;;;;;;4954970;28;20240;-79
2022/07/25 01:32:33;;;;;;;12.93;11.73;;;19.40;99.90;;;;;;4955211;29;20240;-79
2022/07/25 01:35:00;;;;;;;13.23;12.10;;;19.40;99.90;;;;;;4954737;29;20272;-79
2022/07/25 01:37:28;;;;;;;13.90;12.60;;;19.30;99.90;;;;;;4954684;29;20626;-79
2022/07/25 01:39:55;;;;;;;13.23;12.13;;;19.30;99.90;;;;;;4959522;28;20251;-79
2022/07/25 01:42:21;;;;;;;13.87;12.67;;;19.30;99.90;;;;;;4955942;28;20745;-79
2022/07/25 01:44:48;;;;;;;13.20;12.10;;;19.20;99.90;;;;;;4954266;29;20260;-79
2022/07/25 01:47:16;;;;;;;12.93;11.80;;;19.20;99.90;;;;;;4954370;29;20238;-79
2022/07/25 01:49:43;;;;;;;13.83;12.57;;;19.20;99.90;;;;;;4954405;28;20313;-79
2022/07/25 01:52:09;;;;;;;13.40;12.20;;;19.20;99.90;;;;;;4954874;29;20212;-79
2022/07/25 01:54:38;;;;;;;14.40;13.10;;;19.20;99.90;;;;;;4954480;29;20216;-78
2022/07/25 01:57:05;;;;;;;13.33;12.07;;;19.10;99.90;;;;;;4955719;29;20220;-79
2022/07/25 01:59:32;;;;;;;13.90;12.57;;;19.10;99.90;;;;;;4954018;28;20195;-79
2022/07/25 02:01:59;;;;;;;12.87;11.77;;;19.10;99.90;;;;;;4955327;28;20199;-79
2022/07/25 02:04:26;;;;;;;12.90;11.70;;;19.10;99.90;;;;;;4954489;28;20670;-79
2022/07/25 02:06:52;;;;;;;13.73;12.43;;;19.10;99.90;;;;;;4954056;29;20202;-79
2022/07/25 02:09:19;;;;;;;14.07;12.80;;;19.10;99.90;;;;;;4954025;29;20192;-79
2022/07/25 02:11:47;;;;;;;13.80;12.60;;;19.10;99.90;;;;;;4955106;29;20229;-79
2022/07/25 02:14:14;;;;;;;13.30;12.10;;;19.00;99.90;;;;;;4954918;29;20616;-78
2022/07/25 02:16:41;;;;;;;13.80;12.60;;;19.00;99.90;;;;;;4955849;29;20203;-78
2022/07/25 02:19:08;;;;;;;14.53;13.30;;;18.90;99.90;;;;;;4953729;29;20290;-79
2022/07/25 02:21:35;;;;;;;13.53;12.37;;;18.90;99.90;;;;;;4950470;29;20294;-78
2022/07/25 02:24:02;;;;;;;14.50;13.27;;;18.90;99.90;;;;;;4954652;28;20246;-79
2022/07/25 02:26:29;;;;;;;13.23;12.13;;;18.90;99.90;;;;;;4953694;29;20210;-79
2022/07/25 02:28:57;;;;;;;12.80;11.70;;;18.90;99.90;;;;;;4954904;29;20262;-78
2022/07/25 02:31:24;;;;;;;13.57;12.37;;;18.90;99.90;;;;;;4948973;29;20227;-79
2022/07/25 02:33:50;;;;;;;13.80;12.60;;;18.90;99.90;;;;;;4953155;29;20271;-79
2022/07/25 02:36:17;;;;;;;14.67;13.47;;;18.90;99.90;;;;;;4954767;29;20224;-79
2022/07/25 02:38:44;;;;;;;12.63;11.53;;;18.90;99.90;;;;;;4953322;29;20274;-79
2022/07/25 02:41:11;;;;;;;14.00;12.80;;;18.80;99.90;;;;;;4953416;28;20226;-79
2022/07/25 02:43:38;;;;;;;13.67;12.53;;;18.80;99.90;;;;;;4954270;29;20200;-79
2022/07/25 02:46:06;;;;;;;14.00;12.70;;;18.70;99.90;;;;;;4953302;29;20207;-80
2022/07/25 02:48:33;;;;;;;13.50;12.40;;;18.70;99.90;;;;;;4953469;29;20210;-78
2022/07/25 02:51:00;;;;;;;13.40;12.20;;;18.70;99.90;;;;;;4953068;28;20231;-78
2022/07/25 02:53:26;;;;;;;14.20;12.80;;;18.60;99.90;;;;;;4958073;29;20214;-79
2022/07/25 02:55:53;;;;;;;13.80;12.60;;;18.60;99.90;;;;;;4953157;29;20291;-78
2022/07/25 02:58:20;;;;;;;12.67;11.50;;;18.50;99.90;;;;;;4952211;29;20254;-79
2022/07/25 03:00:47;;;;;;;13.20;11.93;;;18.50;99.90;;;;;;4957179;28;20230;-79
2022/07/25 03:03:15;;;;;;;12.07;10.87;;;18.50;99.90;;;;;;4955933;29;20206;-77
2022/07/25 03:05:42;;;;;;;13.07;11.87;;;18.40;99.90;;;;;;4955952;29;20198;-79
2022/07/25 03:08:08;;;;;;;12.37;11.17;;;18.40;99.90;;;;;;4957094;28;20195;-80
2022/07/25 03:10:36;;;;;;;11.27;10.27;;;18.40;99.90;;;;;;4960876;28;20280;-78
2022/07/25 03:13:03;;;;;;;11.73;10.63;;;18.40;99.90;;;;;;4959330;28;20207;-78
2022/07/25 03:15:30;;;;;;;14.77;13.53;;;18.40;99.90;;;;;;4951722;28;20654;-79
2022/07/25 03:17:56;;;;;;;14.90;13.70;;;18.40;99.90;;;;;;4964524;28;20718;-79
2022/07/25 03:20:25;;;;;;;15.10;13.80;;;18.40;99.90;;;;;;4955474;28;20289;-79
2022/07/25 03:22:51;;;;;;;14.80;13.60;;;18.40;99.90;;;;;;4954289;28;20206;-77
2022/07/25 03:25:18;;;;;;;14.50;13.30;;;18.40;99.90;;;;;;4953722;28;20544;-79
2022/07/25 03:27:45;;;;;;;15.47;14.17;;;18.40;99.90;;;;;;4952944;29;20207;-79
2022/07/25 03:30:12;;;;;;;15.00;13.80;;;18.40;99.90;;;;;;4952127;28;20281;-79
2022/07/25 03:32:40;;;;;;;15.53;14.23;;;18.40;99.90;;;;;;4957089;28;20258;-78
2022/07/25 03:35:08;;;;;;;15.10;13.80;;;18.40;99.90;;;;;;4956250;29;20289;-80
2022/07/25 03:37:36;;;;;;;14.97;13.67;;;18.30;99.90;;;;;;4958455;28;20686;-77
2022/07/25 03:40:03;;;;;;;15.40;14.10;;;18.30;99.90;;;;;;4956376;28;20226;-79
2022/07/25 03:42:30;;;;;;;15.67;14.27;;;18.30;99.90;;;;;;4954559;29;20269;-78
2022/07/25 03:44:57;;;;;;;14.57;13.37;;;18.30;99.90;;;;;;4956147;29;20672;-78
2022/07/25 03:47:24;;;;;;;14.80;13.60;;;18.30;99.90;;;;;;4956016;29;20699;-79
2022/07/25 03:49:51;;;;;;;16.00;14.60;;;18.30;99.90;;;;;;4956055;28;20218;-79
2022/07/25 03:52:17;;;;;;;15.30;14.10;;;18.30;99.90;;;;;;4954372;29;20191;-79
2022/07/25 03:54:46;;;;;;;14.87;13.57;;;18.20;99.90;;;;;;4955651;28;20768;-78
2022/07/25 03:57:12;;;;;;;15.63;14.30;;;18.20;99.90;;;;;;4954663;29;20247;-80
2022/07/25 03:59:39;;;;;;;15.97;14.67;;;18.20;99.90;;;;;;4955956;28;20624;-78
2022/07/25 04:02:06;;;;;;;15.87;14.47;;;18.20;99.90;;;;;;4954953;29;20203;-79
2022/07/25 04:04:33;;;;;;;14.80;13.50;;;18.20;99.90;;;;;;4956045;28;20195;-79
2022/07/25 04:06:59;;;;;;;15.73;14.43;;;18.20;99.90;;;;;;4954329;29;20209;-79
2022/07/25 04:09:26;;;;;;;16.33;14.93;;;18.20;99.90;;;;;;4954368;28;20230;-80
2022/07/25 04:11:54;;;;;;;16.30;14.90;;;18.20;99.90;;;;;;4956324;29;20198;-79
2022/07/25 04:14:21;;;;;;;16.00;14.60;;;18.20;99.90;;;;;;4956163;29;20214;-79
2022/07/25 04:16:48;;;;;;;16.47;15.00;;;18.20;99.90;;;;;;4956060;28;20281;-79
2022/07/25 04:19:15;;;;;;;15.60;14.37;;;18.20;99.90;;;;;;4955849;28;20550;-79
2022/07/25 04:21:42;;;;;;;16.30;15.00;;;18.30;99.90;;;;;;4954052;28;20612;-80
2022/07/25 04:24:08;;;;;;;15.10;13.73;;;18.30;99.90;;;;;;4956068;29;20327;-78
2022/07/25 04:26:35;;;;;;;16.90;15.50;;;18.30;99.90;;;;;;4956007;28;20198;-80
2022/07/25 04:29:03;;;;;;;14.93;13.67;;;18.40;99.90;;;;;;4957692;29;20207;-78
2022/07/25 04:31:30;;;;;;;15.37;14.07;;;18.50;99.90;;;;;;4959392;28;20311;-80
2022/07/25 04:33:57;;;;;;;14.47;13.27;;;18.50;99.90;;;;;;4957628;29;20203;-79
2022/07/25 04:36:25;;;;;;;14.30;13.13;;;18.60;99.90;;;;;;4958163;29;20711;-78
2022/07/25 04:38:52;;;;;;;14.87;13.67;;;18.70;99.90;;;;;;4959239;29;20191;-79
2022/07/25 04:41:19;;;;;;;14.93;13.63;;;18.80;99.90;;;;;;4959508;28;20222;-80
2022/07/25 04:43:45;;;;;;;14.87;13.57;;;18.90;99.90;;;;;;4957551;29;20676;-79
2022/07/25 04:46:18;;;;;;;15.13;13.93;;;19.00;99.90;;;;;;4959154;29;20761;-80
2022/07/25 04:48:44;;;;;;;13.90;12.80;;;19.00;99.90;;;;;;4957553;29;20198;-79
2022/07/25 04:51:11;;;;;;;14.30;13.10;;;19.10;99.90;;;;;;4958919;28;20595;-79
2022/07/25 04:53:38;;;;;;;14.60;13.40;;;19.20;99.90;;;;;;4957517;29;20208;-80
2022/07/25 04:56:05;;;;;;;14.10;13.00;;;19.30;99.90;;;;;;4958965;29;20220;-80
2022/07/25 04:58:32;;;;;;;14.53;13.33;;;19.40;99.90;;;;;;4957423;29;20677;-79
2022/07/25 05:00:59;;;;;;;14.43;13.23;;;19.60;99.90;;;;;;4958402;28;20642;-79
2022/07/25 05:03:27;;;;;;;13.83;12.73;;;19.80;99.90;;;;;;4959309;29;20271;-80
2022/07/25 05:05:54;;;;;;;14.13;12.93;;;19.90;99.90;;;;;;4957797;29;20623;-80
2022/07/25 05:08:21;;;;;;;15.10;14.00;;;20.00;99.90;;;;;;4959291;29;20643;-80
2022/07/25 05:10:48;;;;;;;15.80;14.60;;;20.10;99.90;;;;;;4957352;28;20225;-79
2022/07/25 05:13:15;;;;;;;15.83;14.60;;;20.20;99.90;;;;;;4950433;29;20266;-78
2022/07/25 05:15:41;;;;;;;15.33;14.13;;;20.30;99.90;;;;;;4957402;29;20277;-79
2022/07/25 05:18:08;;;;;;;14.63;13.50;;;20.40;99.90;;;;;;4957492;29;20205;-79
2022/07/25 05:20:36;;;;;;;16.07;14.77;;;20.50;99.90;;;;;;4957529;28;20226;-80
2022/07/25 05:23:03;;;;;;;15.90;14.57;;;20.70;99.90;;;;;;4958901;29;20786;-79
2022/07/25 05:25:30;;;;;;;15.90;14.67;;;20.80;99.90;;;;;;4958822;29;20198;-79
2022/07/25 05:27:57;;;;;;;16.80;15.50;;;20.90;99.90;;;;;;4958851;29;20254;-79
2022/07/25 05:30:24;;;;;;;14.73;13.53;;;21.00;99.90;;;;;;4958288;28;20860;-80
2022/07/25 05:32:51;;;;;;;16.03;14.73;;;21.10;99.90;;;;;;4957889;28;20587;-79
2022/07/25 05:35:18;;;;;;;16.10;14.73;;;21.20;99.90;;;;;;4960201;29;20300;-79
2022/07/25 05:37:46;;;;;;;14.20;12.90;;;21.30;99.90;;;;;;4958847;29;20202;-79
2022/07/25 05:40:13;;;;;;;13.27;12.17;;;21.40;99.90;;;;;;4957260;28;20277;-80
2022/07/25 05:42:39;;;;;;;10.77;9.67;;;21.50;99.90;;;;;;4956937;29;20195;-79
2022/07/25 05:45:07;;;;;;;10.37;9.37;;;21.70;99.90;;;;;;4961239;28;20203;-79
2022/07/25 05:47:34;;;;;;;13.63;12.33;;;21.90;99.90;;;;;;4957525;29;20207;-79
2022/07/25 05:50:01;;;;;;;13.77;12.47;;;22.10;99.90;;;;;;4956408;28;20230;-80
2022/07/25 05:52:28;;;;;;;10.63;9.60;;;22.30;99.90;;;;;;4956694;29;20227;-80
2022/07/25 05:54:56;;;;;;;14.67;13.47;;;22.70;99.90;;;;;;4955987;28;20226;-79
2022/07/25 05:57:23;;;;;;;11.17;10.17;;;23.30;99.90;;;;;;4960178;29;20298;-79
2022/07/25 05:59:49;;;;;;;12.17;11.07;;;23.80;99.90;;;;;;4957198;28;20274;-80
2022/07/25 06:02:16;;;;;;;9.90;9.00;;;24.10;99.90;;;;;;4957503;29;20194;-80
2022/07/25 06:04:43;;;;;;;11.30;10.13;;;24.50;99.90;;;;;;4956351;29;20234;-79
2022/07/25 06:07:10;;;;;;;13.93;12.83;;;24.70;99.90;;;;;;4958408;29;20193;-81
2022/07/25 06:09:37;;;;;;;14.43;13.20;;;24.70;99.90;;;;;;4956155;28;20203;-80
2022/07/25 06:12:06;;;;;;;14.07;12.87;;;24.70;99.90;;;;;;4957607;28;20197;-80
2022/07/25 06:14:33;;;;;;;13.60;12.40;;;24.70;99.90;;;;;;4956300;29;20230;-80
2022/07/25 06:17:00;;;;;;;14.20;13.00;;;24.70;99.90;;;;;;4957997;28;20301;-80
2022/07/25 06:19:27;;;;;;;14.30;13.20;;;24.90;99.90;;;;;;4956717;28;20206;-81
2022/07/25 06:21:53;;;;;;;11.03;10.03;;;25.10;99.90;;;;;;4956298;29;20210;-80
2022/07/25 06:24:20;;;;;;;13.43;12.30;;;25.10;99.90;;;;;;4957918;29;20798;-80
2022/07/25 06:26:47;;;;;;;14.30;13.10;;;25.00;99.90;;;;;;4957690;29;20739;-80
2022/07/25 06:29:15;;;;;;;13.47;12.47;;;24.90;99.90;;;;;;4957919;29;20194;-80
2022/07/25 06:31:42;;;;;;;13.73;12.53;;;25.00;99.90;;;;;;4957956;28;20285;-80
2022/07/25 06:34:09;;;;;;;12.87;11.67;;;25.30;99.90;;;;;;4957699;28;20191;-80
2022/07/25 06:36:36;;;;;;;11.90;10.80;;;25.70;99.90;;;;;;4952989;29;20222;-79
2022/07/25 06:39:03;;;;;;;13.90;12.80;;;26.30;99.90;;;;;;4957403;29;20257;-80
2022/07/25 06:41:29;;;;;;;12.67;11.67;;;26.80;99.90;;;;;;4955629;28;20226;-80
2022/07/25 06:43:56;;;;;;;14.40;13.30;;;27.30;99.90;;;;;;4957681;29;20203;-80
2022/07/25 06:46:28;;;;;;;15.23;14.00;;;27.70;99.90;;;;;;4956653;29;20687;-80
2022/07/25 06:48:55;;;;;;;15.73;14.30;;;28.10;99.90;;;;;;4955957;29;20244;-81
2022/07/25 06:51:22;;;;;;;11.20;10.20;;;28.20;99.90;;;;;;4957293;28;20223;-81
2022/07/25 06:53:49;;;;;;;15.10;13.70;;;28.60;99.90;;;;;;4957400;28;20587;-80
2022/07/25 06:56:16;;;;;;;14.53;13.33;;;28.80;99.90;;;;;;4957147;29;20214;-81
2022/07/25 06:58:43;;;;;;;14.00;12.90;;;29.10;99.90;;;;;;4957331;29;20198;-80
2022/07/25 07:01:09;;;;;;;12.70;11.40;;;29.40;99.90;;;;;;4955752;28;20222;-81
2022/07/25 07:03:38;;;;;;;14.47;13.33;;;29.60;99.90;;;;;;4956923;29;20609;-81
2022/07/25 07:06:06;;;;;;;12.50;11.50;;;29.80;99.90;;;;;;4956346;28;20191;-80
2022/07/25 07:08:33;;;;;;;12.90;11.90;;;30.00;99.90;;;;;;4957049;28;20195;-80
2022/07/25 07:11:00;;;;;;;13.27;12.27;;;30.20;99.90;;;;;;4955635;28;20233;-81
2022/07/25 07:13:27;;;;;;;13.80;12.80;;;30.50;99.90;;;;;;4954740;29;20199;-80
2022/07/25 07:15:54;;;;;;;13.43;12.33;;;30.70;99.90;;;;;;4956359;29;20266;-80
2022/07/25 07:18:22;;;;;;;13.43;12.33;;;30.90;99.90;;;;;;4955274;29;20207;-80
2022/07/25 07:20:50;;;;;;;14.03;12.87;;;31.20;99.90;;;;;;4955114;28;20226;-81
2022/07/25 07:23:18;;;;;;;11.50;10.60;;;31.30;99.90;;;;;;4954609;29;20585;-80
2022/07/25 07:25:45;;;;;;;10.60;9.70;;;31.50;99.90;;;;;;4955722;29;20214;-80
2022/07/25 07:28:12;;;;;;;10.43;8.97;;;31.60;99.90;;;;;;4956599;29;20202;-80
2022/07/25 07:30:39;;;;;;;9.50;8.47;;;31.90;99.90;;;;;;4956625;28;20274;-81
2022/07/25 07:33:06;;;;;;;9.10;8.30;;;32.00;99.90;;;;;;4956351;28;20205;-80
2022/07/25 07:35:33;;;;;;;11.00;9.53;;;32.00;99.90;;;;;;4954897;29;20210;-81
2022/07/25 07:38:01;;;;;;;9.93;9.03;;;32.20;99.90;;;;;;4956191;28;20245;-81
2022/07/25 07:40:27;;;;;;;10.07;9.17;;;32.40;99.90;;;;;;4954509;28;20222;-81
2022/07/25 07:42:55;;;;;;;10.52;9.52;;;32.60;99.90;;;;;;4954999;29;20258;-80
2022/07/25 07:45:24;;;;;;;10.35;9.27;;;32.80;99.90;;;;;;4954917;29;20217;-81
2022/07/25 07:47:53;;;;;;;10.15;9.25;;;32.70;99.90;;;;;;4956467;29;20238;-81
2022/07/25 07:50:22;;;;;;;9.77;8.90;;;32.70;99.90;;;;;;4956229;28;20214;-80
2022/07/25 07:52:50;;;;;;;11.10;10.10;;;33.20;99.90;;;;;;4955468;28;20202;-80
2022/07/25 07:58:03;;;;;;;11.57;10.57;;;33.60;99.00;;;;;;4955020;28;20213;-81
2022/07/25 08:00:31;;;;;;;11.63;10.73;;;33.80;98.40;;;;;;4954469;28;20285;-81
2022/07/25 08:02:59;;;;;;;11.32;10.43;;;33.90;98.80;;;;;;4955348;28;20210;-81
2022/07/25 08:05:29;;;;;;;11.38;10.45;;;34.10;98.10;;;;;;4949468;29;20234;-81
2022/07/25 08:07:56;;;;;;;12.20;10.95;;;34.30;98.20;;;;;;4957245;29;20241;-81
2022/07/25 08:10:26;;;;;;;12.70;11.73;;;34.50;97.60;;;;;;4958244;28;20725;-80
2022/07/25 08:12:53;;;;;;;12.35;11.45;;;34.60;97.50;;;;;;4958991;29;20257;-81
2022/07/25 08:15:21;;;;;;;13.50;12.40;;;34.70;97.30;;;;;;4959155;29;20202;-81
2022/07/25 08:17:51;;;;;;;8.68;7.88;;;34.60;96.80;;;;;;4958730;29;20629;-81
2022/07/25 08:20:21;;;;;;;10.77;9.88;;;34.80;96.70;;;;;;4958920;28;20883;-81
2022/07/25 08:22:49;;;;;;;12.27;11.27;;;34.80;96.50;;;;;;4959370;28;20210;-80
2022/07/25 08:25:18;;;;;;;11.70;10.70;;;35.10;97.30;;;;;;4959314;29;20625;-80
2022/07/25 08:27:47;;;;;;;12.50;11.27;;;35.10;97.00;;;;;;4959469;29;20207;-80
2022/07/25 08:30:15;;;;;;;10.77;9.95;;;35.40;96.40;;;;;;4958301;28;20278;-81
2022/07/25 08:32:49;;;;;;;9.70;8.90;;;35.70;95.90;;;;;;4959330;29;20258;-81
2022/07/25 08:35:17;;;;;;;11.35;10.35;;;36.00;95.30;;;;;;4950614;29;20202;-81
2022/07/25 08:37:44;;;;;;;11.80;10.90;;;36.10;95.30;;;;;;4958144;29;20332;-81
2022/07/25 08:40:12;;;;;;;13.52;12.43;;;36.20;95.30;;;;;;4957947;28;20277;-81
2022/07/25 08:42:39;;;;;;;11.93;11.02;;;36.30;94.60;;;;;;4957706;29;20747;-81
2022/07/25 08:45:09;;;;;;;12.25;11.25;;;36.40;94.10;;;;;;4957626;29;20262;-81
2022/07/25 08:47:36;;;;;;;12.85;11.60;;;36.30;94.10;;;;;;4958280;29;20578;-82
2022/07/25 08:50:04;;;;;;;13.38;12.30;;;36.50;93.00;;;;;;4958458;28;20273;-79
2022/07/25 08:52:34;;;;;;;12.63;11.73;;;36.50;93.20;;;;;;4956664;29;20657;-78
2022/07/25 08:55:01;;;;;;;12.73;11.73;;;36.60;93.20;;;;;;4956155;29;20297;-79
2022/07/25 08:57:28;;;;;;;12.10;11.20;;;36.80;93.60;;;;;;4956615;29;20226;-78
2022/07/25 08:59:57;;;;;;;11.13;10.30;;;37.00;92.40;;;;;;4957545;28;20214;-79
2022/07/25 09:02:26;;;;;;;12.05;11.05;;;37.10;91.90;;;;;;4957673;28;20286;-78
2022/07/25 09:04:53;;;;;;;11.70;10.63;;;37.00;91.90;;;;;;4957029;28;20668;-79
2022/07/25 09:07:30;;;;;;;12.85;11.68;;;37.20;91.80;;;;;;4956485;29;20199;-79
2022/07/25 09:09:57;;;;;;;13.20;11.88;;;37.40;92.00;;;;;;4957308;28;20220;-79
2022/07/25 09:12:26;;;;;;;13.30;12.00;;;37.50;90.30;;;;;;4957655;29;20257;-79
2022/07/25 09:14:52;;;;;;;12.10;11.10;;;37.30;91.00;;;;;;4955685;28;20258;-79
2022/07/25 09:17:19;;;;;;;12.75;11.80;;;37.40;91.00;;;;;;4955939;29;20297;-78
2022/07/25 09:19:53;;;;;;;12.02;11.13;;;37.50;90.80;;;;;;4955951;28;20226;-79
2022/07/25 09:22:20;;;;;;;12.50;11.43;;;37.50;89.10;;;;;;4955715;29;20664;-78
2022/07/25 09:24:47;;;;;;;12.30;11.30;;;37.50;90.00;;;;;;4955536;29;20206;-79
2022/07/25 09:27:14;;;;;;;11.75;10.85;;;37.50;87.30;;;;;;4957574;29;20726;-79
2022/07/25 09:29:42;;;;;;;11.70;10.80;;;37.30;87.10;;;;;;4955636;29;21964;-78
2022/07/25 09:32:17;;;;;;;11.23;10.38;;;37.40;87.00;;;;;;4955808;29;20212;-78
2022/07/25 09:34:46;;;;;;;11.32;10.43;;;37.50;85.50;;;;;;4957049;29;20322;-78
2022/07/25 09:37:15;;;;;;;10.80;9.93;;;37.60;84.50;;;;;;4956104;29;20265;-78
2022/07/25 09:39:43;;;;;;;12.07;11.07;;;37.80;83.10;;;;;;4955611;28;20244;-78
2022/07/25 09:42:22;;;;;;;11.43;10.52;;;37.80;83.90;;;;;;4948589;29;20198;-78
2022/07/25 09:45:04;;;;;;;11.18;10.27;;;37.90;83.10;;;;;;4957007;29;20261;-81
2022/07/25 09:47:32;;;;;;;10.75;9.85;;;37.70;82.10;;;;;;4956552;29;20203;-81
2022/07/25 09:49:59;;;;;;;11.05;10.25;;;37.80;83.70;;;;;;4957877;28;20285;-81
2022/07/25 09:52:27;;;;;;;11.68;10.68;;;37.80;80.70;;;;;;4957759;29;20735;-81
2022/07/25 09:54:54;;;;;;;11.13;10.20;;;37.70;82.00;;;;;;4955209;29;20228;-78
2022/07/25 09:57:22;;;;;;;10.95;10.10;;;37.60;80.70;;;;;;4950319;29;20561;-81
2022/07/25 09:59:49;;;;;;;11.52;10.63;;;37.60;81.40;;;;;;4955793;28;20222;-81
2022/07/25 10:02:26;;;;;;;10.35;9.55;;;37.50;82.70;;;;;;4957647;28;20672;-81
2022/07/25 10:05:11;;;;;;;11.85;10.52;;;37.70;81.30;;;;;;4955861;29;20213;-81
2022/07/25 10:07:45;;;;;;;11.20;10.40;;;37.70;80.40;;;;;;4957034;29;20202;-81
2022/07/25 10:10:22;;;;;;;10.45;9.55;;;37.80;80.80;;;;;;4949877;28;20230;-81
2022/07/25 10:13:02;;;;;;;10.68;9.88;;;38.00;80.50;;;;;;4957377;29;20631;-81
2022/07/25 10:15:48;;;;;;;9.90;9.10;;;38.10;79.10;;;;;;4957521;28;20671;-81
2022/07/25 10:18:17;;;;;;;10.45;9.63;;;38.10;76.50;;;;;;4955779;29;20245;-81
2022/07/25 10:20:45;;;;;;;10.43;9.68;;;38.00;75.50;;;;;;4957053;28;20719;-81
2022/07/25 10:23:25;;;;;;;9.95;9.25;;;38.00;77.60;;;;;;4954678;29;20195;-81
2022/07/25 10:26:08;;;;;;;9.90;9.02;;;37.90;77.40;;;;;;4956553;28;20206;-81
2022/07/25 10:28:41;;;;;;;9.57;8.88;;;38.00;77.50;;;;;;4955699;29;20265;-81
2022/07/25 10:31:21;;;;;;;9.48;8.63;;;38.00;76.20;;;;;;4956515;28;20707;-78
2022/07/25 10:33:51;;;;;;;9.70;9.00;;;37.80;75.30;;;;;;4956119;29;20293;-78
2022/07/25 10:36:20;;;;;;;9.73;9.10;;;37.80;73.90;;;;;;4955047;29;20230;-78
2022/07/25 10:38:51;;;;;;;9.38;8.68;;;37.70;74.70;;;;;;4956317;29;20206;-78
2022/07/25 10:41:18;;;;;;;9.20;8.50;;;37.60;74.30;;;;;;4956208;28;20314;-78
2022/07/25 10:43:46;;;;;;;9.18;8.50;;;37.50;74.70;;;;;;4954361;29;20265;-78
2022/07/25 10:46:17;;;;;;;9.07;8.38;;;37.40;72.50;;;;;;4955800;28;20672;-78
2022/07/25 10:48:44;;;;;;;9.55;8.85;;;37.40;74.30;;;;;;4954432;28;20206;-81
2022/07/25 10:51:13;;;;;;;9.23;8.63;;;37.40;75.00;;;;;;4947512;29;20743;-81
2022/07/25 10:53:45;;;;;;;7.85;7.20;;;37.30;73.90;;;;;;4955760;29;20211;-81
2022/07/25 10:56:16;;;;;;;7.20;6.70;;;37.20;74.60;;;;;;4947291;29;20206;-81
2022/07/25 10:58:49;;;;;;;7.22;6.72;;;37.20;74.70;;;;;;4955142;29;20285;-81
2022/07/25 11:01:21;;;;;;;8.63;8.02;;;37.20;73.40;;;;;;4947617;29;20259;-81
2022/07/25 11:03:48;;;;;;;8.48;7.65;;;37.10;72.70;;;;;;4956303;29;20202;-80
2022/07/25 11:06:16;;;;;;;8.15;7.55;;;37.10;71.90;;;;;;4956123;29;20257;-81
2022/07/25 11:08:44;;;;;;;7.30;6.60;;;36.80;71.20;;;;;;4949779;29;20233;-80
2022/07/25 11:11:12;;;;;;;7.72;7.13;;;36.70;72.00;;;;;;4948034;29;20344;-81
2022/07/25 11:13:43;;;;;;;7.07;6.57;;;36.60;71.50;;;;;;4954648;29;20206;-81
2022/07/25 11:16:10;;;;;;;7.53;6.93;;;36.60;71.60;;;;;;4949142;29;20648;-80
2022/07/25 11:18:38;;;;;;;6.93;6.43;;;36.60;72.80;;;;;;4966678;28;20226;-80
2022/07/25 11:21:08;;;;;;;7.15;6.55;;;36.60;72.90;;;;;;4953786;28;20727;-81
2022/07/25 11:23:35;;;;;;;8.63;7.90;;;36.50;72.50;;;;;;4954816;29;20206;-81
2022/07/25 11:26:07;;;;;;;8.60;8.00;;;36.50;73.50;;;;;;4951009;29;20202;-80
2022/07/25 11:28:40;;;;;;;8.68;7.72;;;36.50;72.80;;;;;;4965273;28;20207;-81
2022/07/25 11:31:07;;;;;;;8.65;7.95;;;36.40;70.90;;;;;;4955800;28;20229;-80
2022/07/25 11:33:35;;;;;;;8.35;7.75;;;36.30;73.00;;;;;;4952803;29;20245;-81
2022/07/25 11:36:02;;;;;;;8.32;7.60;;;36.30;71.30;;;;;;4955111;28;20257;-80
2022/07/25 11:38:29;;;;;;;8.10;7.50;;;36.30;71.80;;;;;;4958197;29;20231;-81
2022/07/25 11:40:56;;;;;;;8.48;7.88;;;36.30;70.70;;;;;;4957820;28;20218;-81
2022/07/25 11:43:24;;;;;;;7.00;6.50;;;36.20;69.80;;;;;;4956738;29;20210;-81
2022/07/25 11:46:01;;;;;;;8.00;6.80;;;36.20;70.80;;;;;;4958237;29;20214;-80
2022/07/25 11:48:34;;;;;;;7.50;6.80;;;36.20;71.00;;;;;;4952810;29;20199;-81
2022/07/25 11:51:13;;;;;;;6.85;6.25;;;36.20;71.80;;;;;;4959783;28;20218;-81
2022/07/25 11:53:45;;;;;;;7.07;6.57;;;36.30;71.80;;;;;;4958879;28;20210;-80
2022/07/25 11:56:17;;;;;;;7.43;6.82;;;36.20;70.60;;;;;;4956925;29;20217;-80
2022/07/25 11:58:49;;;;;;;7.35;6.75;;;36.10;71.30;;;;;;4957905;29;20707;-81
2022/07/25 12:01:17;;;;;;;7.53;6.93;;;36.00;70.70;;;;;;4957859;28;20277;-80
2022/07/25 12:03:45;;;;;;;7.45;6.85;;;36.00;71.20;;;;;;4956024;29;20199;-79
2022/07/25 12:06:12;;;;;;;7.20;6.60;;;36.00;72.30;;;;;;4971122;28;20206;-80
2022/07/25 12:08:41;;;;;;;7.47;6.88;;;36.00;72.60;;;;;;4957638;29;20202;-81
2022/07/25 12:11:21;;;;;;;9.00;8.20;;;36.00;70.40;;;;;;4959090;28;20595;-81
2022/07/25 12:13:48;;;;;;;8.63;7.95;;;36.00;70.50;;;;;;4957026;29;20205;-80
2022/07/25 12:16:18;;;;;;;9.02;8.23;;;36.00;70.70;;;;;;4957430;28;20207;-81
2022/07/25 12:18:45;;;;;;;8.65;7.97;;;35.90;71.00;;;;;;4956563;29;20300;-78
2022/07/25 12:21:11;;;;;;;8.48;7.88;;;36.00;70.20;;;;;;4956586;28;20751;-81
2022/07/25 12:23:41;;;;;;;7.72;7.05;;;35.90;71.50;;;;;;4958505;29;20654;-81
2022/07/25 12:26:09;;;;;;;7.30;6.70;;;35.80;70.40;;;;;;4958150;29;20205;-80
2022/07/25 12:28:36;;;;;;;7.20;6.50;;;35.90;71.00;;;;;;4958947;29;20198;-80
2022/07/25 12:31:03;;;;;;;7.30;6.60;;;36.00;70.70;;;;;;4958040;28;20242;-81
2022/07/25 12:33:32;;;;;;;6.90;6.40;;;36.10;70.40;;;;;;4956206;28;20700;-81
2022/07/25 12:35:59;;;;;;;7.47;6.90;;;36.00;69.10;;;;;;4957021;29;20213;-81
2022/07/25 12:38:26;;;;;;;6.95;6.45;;;36.10;69.40;;;;;;4958401;28;20709;-79